EGWC - Cosford Royal Air Force Base
Distance from station: E 5mi, 14km
Updated: 10/18/2017 5:50am
NOT Current
Haze, Mostly cloudy
Haze, Mostly cloudy
 Wind from ESE
Wind: ESE 8 mph , 13 km/h
Temperature: 54°F , 12°C
Dew Point: 48°F , 9°C
Humidity: 82%
Barometer: 29.88 inHg , 1012 hPa
Summary: Haze
Clouds: Mostly Cloudy
Visibility: 5 miles , 8 km
Cloud details: Partly Cloudy 800 ft
Mostly Cloudy 1000 ft
2017/10/18 12:50 EGWC 181250Z 12007KT 8000 HZ SCT008 BKN010 12/09 Q1012 GRN